Nesenie raksti

Ziņas

Par Gliding.lv

Gliding.lv ir interneta vietne par planieriem un planierismu. Šeit būs atrodama informācija par iespējām pamēģināt, iesaistīties un organizēt planierisma aktivitātes. Izmanto Gliding.lv forumu, ja Tev ir kāda tēma diskusijai vai jautājums. Gliding.lv merķis ir informēt un apvienot planierisma interesentus, nodrošinot un apmainoties ar aktuālāko un arī bijušo. Lidojam!

Laiks Rīgā
17°
scattered clouds
mitrums: 72%
vējš: 3m/s DR
Aug 19 • Zem 18
20°
Pir
20°
Otr
21°
Tre
22°
Cet
Meteo-dati no OpenWeatherMap

METAR

EVRA 120820Z VRB03KT 9999 SCT021 SCT038 18/11 Q1018 NOSIG

EVLA 120820Z AUTO 25012KT 9999 SCT019/// BKN022/// 15/11 Q1019

EVVA 120820Z AUTO 25010KT 9999 FEW015 SCT060 16/13 Q1018

Nesenie raksti

Pāriet uz rīkjoslu